Time;durP1;ratioP1;P1;durP2;ratioP2;P2;SDS_P1;SDS_P2;PMS_P1;PMS_P2;Temp;Humidity;BMP_temperature;BMP_pressure;BME280_temperature;BME280_humidity;BME280_pressure;Samples;Min_cycle;Max_cycle;Signal;HPM_P1;HPM_P2
2022/03/25 00:02:19;;;;;;;1.00;0.50;;;;;;;21.87;50.18;102149.25;5073378;28;20024;-60
2022/03/25 00:04:44;;;;;;;0.70;0.10;;;;;;;21.87;50.60;102151.97;5073562;28;20028;-60
2022/03/25 00:07:10;;;;;;;1.35;0.40;;;;;;;21.85;50.56;102147.69;5073391;28;20032;-60
2022/03/25 00:09:36;;;;;;;0.80;0.28;;;;;;;21.90;50.66;102146.19;5073332;28;20086;-60
2022/03/25 00:12:03;;;;;;;0.93;0.43;;;;;;;22.31;50.86;102146.38;5073377;28;20016;-60
2022/03/25 00:14:29;;;;;;;0.80;0.20;;;;;;;22.55;52.86;102150.22;5072858;28;20394;-60
2022/03/25 00:16:54;;;;;;;1.38;0.30;;;;;;;22.63;54.46;102142.00;5073326;28;20099;-60
2022/03/25 00:19:19;;;;;;;0.90;0.30;;;;;;;22.72;56.14;102152.81;5072955;28;20071;-60
2022/03/25 00:21:44;;;;;;;0.93;0.30;;;;;;;22.77;57.44;102149.56;5073225;28;20044;-60
2022/03/25 00:24:10;;;;;;;1.00;0.35;;;;;;;22.87;57.14;102149.44;5073090;28;20021;-60
2022/03/25 00:26:35;;;;;;;0.70;0.30;;;;;;;22.90;57.94;102149.94;5073065;28;20602;-60
2022/03/25 00:29:01;;;;;;;1.00;0.43;;;;;;;22.96;58.46;102149.25;5073094;28;20029;-60
2022/03/25 00:31:26;;;;;;;1.25;0.50;;;;;;;22.98;59.51;102147.19;5072606;28;20496;-60
2022/03/25 00:33:52;;;;;;;0.75;0.30;;;;;;;23.06;60.17;102154.59;5073074;28;20096;-60
2022/03/25 00:36:18;;;;;;;0.68;0.10;;;;;;;23.04;60.28;102146.53;5072713;28;20033;-60
2022/03/25 00:38:44;;;;;;;1.25;0.28;;;;;;;23.08;60.17;102139.69;5072894;28;20298;-60
2022/03/25 00:41:11;;;;;;;1.38;0.28;;;;;;;23.14;61.25;102134.53;5072836;28;20024;-60
2022/03/25 00:43:36;;;;;;;1.05;0.50;;;;;;;23.19;61.54;102137.63;5072733;28;20021;-60
2022/03/25 00:46:02;;;;;;;1.92;0.60;;;;;;;23.22;60.90;102131.78;5072474;28;20050;-60
2022/03/25 00:48:30;;;;;;;1.40;0.30;;;;;;;23.26;61.88;102134.00;5072594;28;20499;-60
2022/03/25 00:50:55;;;;;;;0.55;0.35;;;;;;;23.27;61.46;102134.84;5072795;28;20032;-61
2022/03/25 00:53:21;;;;;;;1.92;0.38;;;;;;;23.31;62.16;102125.25;5072478;28;20063;-61
2022/03/25 00:55:46;;;;;;;1.45;0.70;;;;;;;23.29;61.86;102117.19;5072746;28;20024;-61
2022/03/25 00:58:11;;;;;;;1.80;0.35;;;;;;;23.33;62.67;102114.94;5072460;28;20111;-61
2022/03/25 01:00:37;;;;;;;0.80;0.30;;;;;;;23.37;63.25;102105.34;5072526;28;20036;-61
2022/03/25 01:03:03;;;;;;;2.20;0.50;;;;;;;23.40;62.54;102102.25;5072722;28;20035;-61
2022/03/25 01:05:28;;;;;;;2.42;0.50;;;;;;;23.43;62.91;102107.41;5071713;28;20025;-61
2022/03/25 01:07:54;;;;;;;2.30;0.50;;;;;;;23.47;62.63;102100.50;5072591;28;20024;-61
2022/03/25 01:10:19;;;;;;;0.47;0.20;;;;;;;23.48;62.74;102110.47;5072283;28;20020;-61
2022/03/25 01:12:44;;;;;;;3.60;0.60;;;;;;;23.52;62.40;102102.75;5072499;28;20029;-60
2022/03/25 01:15:10;;;;;;;2.60;0.57;;;;;;;23.55;62.53;102107.88;5072094;28;20032;-61
2022/03/25 01:17:35;;;;;;;3.67;0.60;;;;;;;23.56;62.61;102102.22;5072198;28;20032;-61
2022/03/25 01:20:00;;;;;;;1.65;0.50;;;;;;;23.58;61.29;102091.94;5072366;28;20063;-60
2022/03/25 01:22:26;;;;;;;1.45;0.40;;;;;;;23.60;62.13;102097.25;5072227;28;20048;-61
2022/03/25 01:24:51;;;;;;;1.60;0.40;;;;;;;23.61;62.32;102099.81;5072388;28;20039;-60
2022/03/25 01:27:17;;;;;;;1.75;0.40;;;;;;;23.59;61.15;102096.41;5072150;28;20025;-60
2022/03/25 01:29:42;;;;;;;3.35;0.93;;;;;;;23.64;61.48;102099.47;5072359;28;20024;-60
2022/03/25 01:32:08;;;;;;;1.67;0.40;;;;;;;23.64;61.48;102087.63;5072077;28;20049;-60
2022/03/25 01:34:34;;;;;;;0.45;0.20;;;;;;;23.65;61.31;102079.22;5070913;28;20024;-60
2022/03/25 01:37:00;;;;;;;1.40;0.43;;;;;;;23.66;60.96;102085.56;5072266;28;20515;-60
2022/03/25 01:39:26;;;;;;;2.85;0.55;;;;;;;23.67;61.00;102077.16;5072008;28;20427;-60
2022/03/25 01:41:51;;;;;;;3.13;0.40;;;;;;;23.69;60.70;102071.50;5072270;28;20025;-60
2022/03/25 01:44:27;;;;;;;1.15;0.40;;;;;;;23.72;60.21;102073.03;5071860;28;20468;-60
2022/03/25 01:46:54;;;;;;;0.85;0.30;;;;;;;23.71;60.73;102074.94;5072201;28;20039;-60
2022/03/25 01:49:20;;;;;;;1.80;0.40;;;;;;;23.72;60.62;102073.91;5071970;28;20016;-60
2022/03/25 01:51:50;;;;;;;0.98;0.20;;;;;;;23.73;60.00;102070.13;5072147;28;20024;-60
2022/03/25 01:54:24;;;;;;;1.60;0.43;;;;;;;23.76;60.52;102074.38;5071874;28;20108;-60
2022/03/25 01:56:56;;;;;;;1.25;0.38;;;;;;;23.76;60.16;102064.25;5072165;28;20016;-60
2022/03/25 01:59:23;;;;;;;0.95;0.30;;;;;;;23.75;59.66;102067.19;5071718;28;20035;-60
2022/03/25 02:01:49;;;;;;;0.65;0.38;;;;;;;23.74;59.42;102065.47;5072147;28;20047;-60
2022/03/25 02:04:14;;;;;;;1.60;0.30;;;;;;;23.77;59.32;102054.97;5071873;28;20028;-60
2022/03/25 02:06:40;;;;;;;0.70;0.20;;;;;;;23.78;59.96;102067.69;5071959;28;20396;-60
2022/03/25 02:09:05;;;;;;;0.70;0.30;;;;;;;23.82;59.48;102073.66;5071993;28;20464;-60
2022/03/25 02:11:32;;;;;;;1.10;0.30;;;;;;;23.79;60.19;102074.03;5071761;28;20395;-60
2022/03/25 02:13:57;;;;;;;1.02;0.57;;;;;;;23.81;59.72;102083.78;5071559;28;20020;-60
2022/03/25 02:16:38;;;;;;;0.90;0.30;;;;;;;23.81;59.42;102078.31;5072048;28;20121;-60
2022/03/25 02:19:04;;;;;;;1.23;0.28;;;;;;;23.82;59.42;102073.66;5075567;28;20025;-60
2022/03/25 02:21:33;;;;;;;1.30;0.25;;;;;;;23.84;59.54;102055.13;5075322;28;20465;-60
2022/03/25 02:24:00;;;;;;;1.85;0.52;;;;;;;23.86;59.57;102055.81;5075495;28;20108;-60
2022/03/25 02:26:27;;;;;;;1.92;0.30;;;;;;;23.85;59.58;102045.84;5075241;28;20076;-60
2022/03/25 02:28:53;;;;;;;1.02;0.10;;;;;;;23.82;58.99;102046.19;5075725;28;20096;-60
2022/03/25 02:31:18;;;;;;;1.10;0.47;;;;;;;23.87;59.64;102043.78;5075022;28;20099;-60
2022/03/25 02:33:44;;;;;;;1.10;0.38;;;;;;;23.87;59.40;102039.16;5075396;28;20024;-60
2022/03/25 02:36:09;;;;;;;1.48;0.57;;;;;;;23.88;59.73;102035.38;5075175;28;20394;-60
2022/03/25 02:38:35;;;;;;;1.50;0.30;;;;;;;23.88;59.45;102035.38;5075008;28;20074;-60
2022/03/25 02:41:01;;;;;;;1.05;0.20;;;;;;;23.90;59.04;102019.56;5075214;28;20522;-60
2022/03/25 02:43:26;;;;;;;1.35;0.65;;;;;;;23.91;59.10;102012.19;5074652;28;20024;-60
2022/03/25 02:45:52;;;;;;;1.95;0.38;;;;;;;23.90;59.45;102007.72;5074819;28;20044;-60
2022/03/25 02:48:17;;;;;;;0.95;0.20;;;;;;;23.90;59.17;102003.09;5074867;28;20104;-60
2022/03/25 02:50:42;;;;;;;0.30;0.30;;;;;;;23.92;59.42;102002.91;5075002;28;20024;-60
2022/03/25 02:53:08;;;;;;;1.55;0.40;;;;;;;23.93;59.53;101993.63;5074314;28;20480;-61
2022/03/25 02:55:34;;;;;;;0.95;0.47;;;;;;;23.92;59.50;101991.91;5074801;28;20032;-61
2022/03/25 02:58:00;;;;;;;0.70;0.15;;;;;;;23.91;58.39;101995.72;5074875;28;20032;-61
2022/03/25 03:00:26;;;;;;;1.75;0.50;;;;;;;23.92;58.38;101986.44;5073244;28;20020;-60
2022/03/25 03:02:52;;;;;;;0.88;0.35;;;;;;;23.94;59.20;101984.34;5074873;28;20043;-60
2022/03/25 03:05:17;;;;;;;0.90;0.25;;;;;;;23.94;58.62;101989.84;5074539;28;20376;-61
2022/03/25 03:07:45;;;;;;;1.13;0.50;;;;;;;23.94;59.47;101987.09;5075252;28;20027;-60
2022/03/25 03:10:11;;;;;;;1.20;0.50;;;;;;;23.94;59.43;101995.34;5074584;28;20016;-60
2022/03/25 03:12:37;;;;;;;0.80;0.25;;;;;;;23.95;59.30;101981.41;5074426;28;20115;-60
2022/03/25 03:15:03;;;;;;;2.85;0.55;;;;;;;23.94;58.97;101976.97;5074367;28;20147;-60
2022/03/25 03:17:28;;;;;;;2.40;0.47;;;;;;;23.96;59.02;101983.13;5074224;28;20165;-60
2022/03/25 03:19:54;;;;;;;0.70;0.50;;;;;;;23.96;58.93;101979.53;5074418;28;20420;-61
2022/03/25 03:22:20;;;;;;;0.85;0.40;;;;;;;23.97;59.15;101989.47;5074170;28;20024;-60
2022/03/25 03:24:46;;;;;;;2.25;0.45;;;;;;;23.98;59.37;101981.06;5074361;28;20028;-59
2022/03/25 03:27:11;;;;;;;0.63;0.15;;;;;;;23.98;59.32;101980.19;5074270;28;20079;-60
2022/03/25 03:29:37;;;;;;;0.20;0.10;;;;;;;23.97;58.31;101973.00;5073518;28;20021;-61
2022/03/25 03:32:03;;;;;;;1.27;0.45;;;;;;;23.98;58.71;101960.97;5074188;28;20045;-60
2022/03/25 03:34:29;;;;;;;3.05;0.40;;;;;;;23.98;58.91;101952.72;5072638;28;20040;-61
2022/03/25 03:36:54;;;;;;;1.38;0.50;;;;;;;23.98;59.37;101953.59;5074111;28;20032;-61
2022/03/25 03:39:19;;;;;;;0.93;0.38;;;;;;;23.96;59.26;101952.06;5073738;28;20491;-61
2022/03/25 03:41:45;;;;;;;1.70;0.52;;;;;;;24.00;59.06;101956.16;5074029;28;20024;-61
2022/03/25 03:44:10;;;;;;;1.35;0.40;;;;;;;23.99;59.34;101943.44;5072249;28;20016;-61
2022/03/25 03:46:36;;;;;;;1.05;0.30;;;;;;;23.97;59.12;101949.13;5073463;28;20029;-60
2022/03/25 03:49:01;;;;;;;1.35;0.30;;;;;;;24.01;59.12;101938.63;5073911;28;20056;-60
2022/03/25 03:51:27;;;;;;;0.60;0.30;;;;;;;24.02;58.46;101937.63;5073585;28;20031;-59
2022/03/25 03:53:52;;;;;;;2.40;0.40;;;;;;;24.02;58.80;101937.63;5073845;28;20031;-60
2022/03/25 03:56:17;;;;;;;0.88;0.28;;;;;;;24.02;59.12;101932.13;5073500;28;20066;-60
2022/03/25 03:58:42;;;;;;;1.67;0.50;;;;;;;24.06;58.37;101932.59;5073563;28;20484;-60
2022/03/25 04:01:08;;;;;;;1.38;0.32;;;;;;;24.04;58.49;101919.06;5072274;28;20074;-60
2022/03/25 04:03:33;;;;;;;1.40;0.32;;;;;;;24.05;59.30;101915.28;5072945;28;20028;-60
2022/03/25 04:06:00;;;;;;;0.70;0.28;;;;;;;24.05;58.52;101898.78;5073221;28;20025;-60
2022/03/25 04:08:25;;;;;;;0.88;0.30;;;;;;;24.05;59.26;101922.66;5073217;28;20035;-60
2022/03/25 04:10:50;;;;;;;1.55;0.30;;;;;;;24.06;58.73;101922.47;5073528;28;20028;-60
2022/03/25 04:13:16;;;;;;;1.67;0.30;;;;;;;24.05;59.04;101912.53;5073245;28;20028;-60
2022/03/25 04:15:41;;;;;;;0.65;0.30;;;;;;;24.07;58.53;101924.19;5072069;28;20031;-60
2022/03/25 04:18:06;;;;;;;1.20;0.22;;;;;;;24.07;59.17;101923.31;5073571;28;20549;-60
2022/03/25 04:20:32;;;;;;;1.05;0.38;;;;;;;24.08;58.39;101922.28;5073112;28;20024;-60
2022/03/25 04:22:57;;;;;;;0.57;0.28;;;;;;;24.07;59.08;101928.81;5073254;28;20028;-60
2022/03/25 04:25:23;;;;;;;1.65;0.30;;;;;;;24.06;58.72;101922.47;5072944;28;20391;-60
2022/03/25 04:27:53;;;;;;;1.30;0.20;;;;;;;24.07;59.47;101926.94;5073231;28;20020;-60
2022/03/25 04:30:20;;;;;;;1.27;0.40;;;;;;;24.05;58.98;101923.50;5072896;28;20080;-60
2022/03/25 04:32:46;;;;;;;0.22;0.20;;;;;;;24.08;58.99;101903.91;5072665;28;20051;-60
2022/03/25 04:35:11;;;;;;;0.55;0.20;;;;;;;24.08;58.74;101909.41;5072920;28;20275;-60
2022/03/25 04:37:36;;;;;;;0.57;0.20;;;;;;;24.07;58.62;101907.69;5073214;28;20391;-60
2022/03/25 04:40:03;;;;;;;0.82;0.43;;;;;;;24.06;58.87;101911.47;5071984;28;20025;-61
2022/03/25 04:42:29;;;;;;;2.47;0.40;;;;;;;24.08;58.84;101906.66;5072643;28;20028;-61
2022/03/25 04:44:54;;;;;;;0.80;0.25;;;;;;;24.10;59.01;101901.81;5072912;28;20036;-61
2022/03/25 04:47:20;;;;;;;3.25;0.88;;;;;;;24.10;59.00;101901.81;5072576;28;20032;-61
2022/03/25 04:49:45;;;;;;;2.88;0.40;;;;;;;24.09;59.04;101897.38;5072829;28;20021;-61
2022/03/25 04:52:10;;;;;;;2.22;0.38;;;;;;;24.11;58.89;101892.53;5072652;28;20418;-61
2022/03/25 04:54:36;;;;;;;2.00;0.40;;;;;;;24.11;59.94;101892.53;5072688;28;20061;-61
2022/03/25 04:57:02;;;;;;;3.30;0.22;;;;;;;;;;5072717;28;20067;-61
2022/03/25 04:59:27;;;;;;;1.63;0.85;;;;;;;24.13;58.79;101889.63;5072404;28;20441;-61
2022/03/25 05:01:52;;;;;;;1.67;0.30;;;;;;;24.21;58.77;101908.78;5072767;28;20379;-61
2022/03/25 05:04:17;;;;;;;1.40;0.40;;;;;;;24.34;58.53;101908.16;5072436;28;20024;-61
2022/03/25 05:06:43;;;;;;;2.25;0.30;;;;;;;24.44;57.87;101903.28;5072613;28;20028;-61
2022/03/25 05:09:10;;;;;;;2.00;0.60;;;;;;;24.49;57.28;101909.06;5072450;28;20024;-61
2022/03/25 05:11:36;;;;;;;1.70;0.30;;;;;;;24.56;57.75;101885.31;5072456;28;20028;-61
2022/03/25 05:14:01;;;;;;;2.13;0.30;;;;;;;24.58;57.69;101883.22;5072584;28;20489;-61
2022/03/25 05:16:26;;;;;;;1.10;0.40;;;;;;;24.63;57.66;101867.00;5072302;28;20519;-60
2022/03/25 05:18:52;;;;;;;2.67;0.40;;;;;;;24.66;57.46;101872.13;5072493;28;20035;-60
2022/03/25 05:21:17;;;;;;;1.45;0.40;;;;;;;24.70;58.31;101864.38;5072315;28;20020;-60
2022/03/25 05:23:42;;;;;;;1.70;0.32;;;;;;;24.71;57.05;101860.56;5072404;28;20472;-61
2022/03/25 05:26:08;;;;;;;2.63;0.68;;;;;;;24.74;57.81;101855.53;5071104;28;20472;-60
2022/03/25 05:28:34;;;;;;;1.75;0.70;;;;;;;24.75;57.90;101850.88;5072256;28;20013;-60
2022/03/25 05:30:59;;;;;;;0.57;0.20;;;;;;;24.76;57.66;101852.59;5072185;28;20029;-60
2022/03/25 05:33:24;;;;;;;1.55;0.40;;;;;;;24.79;57.61;101846.72;5072025;28;20048;-60
2022/03/25 05:35:50;;;;;;;0.73;0.17;;;;;;;24.81;57.81;101842.72;5072316;28;20448;-60
2022/03/25 05:38:15;;;;;;;1.63;0.28;;;;;;;24.81;57.30;101848.22;5072092;28;20032;-60
2022/03/25 05:40:40;;;;;;;1.58;0.40;;;;;;;24.84;56.57;101842.34;5072234;28;20025;-61
2022/03/25 05:43:07;;;;;;;3.60;0.40;;;;;;;24.83;57.61;101842.53;5072257;28;20021;-60
2022/03/25 05:45:33;;;;;;;3.22;0.35;;;;;;;24.87;57.58;101839.22;5072049;28;20031;-60
2022/03/25 05:47:58;;;;;;;2.08;0.30;;;;;;;24.88;57.58;101834.56;5072141;28;20107;-60
2022/03/25 05:50:23;;;;;;;2.08;0.20;;;;;;;24.89;57.94;101837.13;5071955;28;20048;-60
2022/03/25 05:52:48;;;;;;;1.50;0.60;;;;;;;24.93;58.02;101831.25;5075121;28;20119;-60
2022/03/25 05:55:16;;;;;;;0.28;0.10;;;;;;;24.92;58.05;101813.88;5075981;28;20039;-60
2022/03/25 05:57:41;;;;;;;0.90;0.20;;;;;;;24.93;57.98;101825.75;5075987;28;20048;-61
2022/03/25 06:00:08;;;;;;;1.13;0.13;;;;;;;24.94;57.46;101822.81;5075657;28;20063;-61
2022/03/25 06:02:34;;;;;;;2.20;0.40;;;;;;;24.98;58.36;101823.25;5075768;28;20027;-61
2022/03/25 06:04:59;;;;;;;1.63;0.32;;;;;;;24.99;57.53;101819.47;5075973;28;20025;-61
2022/03/25 06:07:25;;;;;;;0.93;0.28;;;;;;;24.98;57.87;101817.75;5075609;28;20048;-61
2022/03/25 06:09:51;;;;;;;1.15;0.30;;;;;;;25.00;58.78;101813.81;5075881;28;20111;-60
2022/03/25 06:12:16;;;;;;;3.13;0.73;;;;;;;25.01;58.50;101811.91;5075606;28;20048;-60
2022/03/25 06:14:41;;;;;;;1.55;0.30;;;;;;;25.02;57.20;101802.59;5075672;28;20055;-60
2022/03/25 06:17:07;;;;;;;1.65;0.40;;;;;;;25.04;57.77;101811.53;5075647;28;20028;-61
2022/03/25 06:19:33;;;;;;;1.55;0.20;;;;;;;25.04;58.42;101801.41;5074066;28;20024;-60
2022/03/25 06:21:59;;;;;;;1.08;0.40;;;;;;;25.05;57.97;101794.00;5075634;28;20051;-60
2022/03/25 06:24:24;;;;;;;0.47;0.15;;;;;;;25.06;58.01;101798.44;5075285;28;20036;-60
2022/03/25 06:26:50;;;;;;;0.22;0.10;;;;;;;25.08;57.95;101796.34;5075520;28;20032;-60
2022/03/25 06:29:16;;;;;;;2.25;0.43;;;;;;;25.09;57.85;101792.53;5075030;28;20108;-60
2022/03/25 06:31:41;;;;;;;1.15;0.30;;;;;;;25.09;57.98;101793.41;5075444;28;20120;-60
2022/03/25 06:34:06;;;;;;;1.13;0.28;;;;;;;25.10;58.16;101783.25;5075654;28;20066;-61
2022/03/25 06:36:31;;;;;;;0.32;0.30;;;;;;;25.12;58.46;101793.00;5075085;28;20054;-60
2022/03/25 06:38:57;;;;;;;0.55;0.10;;;;;;;25.12;58.14;101792.16;5075441;28;20029;-60
2022/03/25 06:41:22;;;;;;;0.95;0.35;;;;;;;25.12;57.77;101781.16;5075018;28;20480;-60
2022/03/25 06:43:49;;;;;;;0.73;0.22;;;;;;;25.14;58.27;101784.56;5074961;28;20033;-60
2022/03/25 06:46:17;;;;;;;0.15;0.10;;;;;;;25.15;58.42;101781.59;5074984;28;20020;-60
2022/03/25 06:48:42;;;;;;;0.57;0.20;;;;;;;25.14;57.92;101779.06;5074996;28;20455;-61
2022/03/25 06:51:08;;;;;;;0.70;0.30;;;;;;;25.15;57.46;101775.25;5075020;28;20033;-61
2022/03/25 06:53:34;;;;;;;0.25;0.10;;;;;;;25.18;58.91;101774.84;5075396;28;20031;-60
2022/03/25 06:55:59;;;;;;;0.40;0.28;;;;;;;25.17;58.63;101770.41;5074981;28;20016;-61
2022/03/25 06:58:25;;;;;;;2.67;0.73;;;;;;;25.19;58.03;101760.94;5074625;28;20024;-60
2022/03/25 07:00:51;;;;;;;0.60;0.50;;;;;;;25.20;58.69;101756.28;5074556;28;20020;-60
2022/03/25 07:03:16;;;;;;;1.70;0.55;;;;;;;25.20;57.36;101764.53;5072249;28;20037;-60
2022/03/25 07:05:42;;;;;;;1.10;0.35;;;;;;;25.20;57.83;101761.78;5074775;28;20039;-60
2022/03/25 07:08:08;;;;;;;0.70;0.20;;;;;;;25.22;58.62;101767.09;5074740;28;20024;-61
2022/03/25 07:10:34;;;;;;;1.00;0.32;;;;;;;25.24;57.95;101768.59;5074526;28;20352;-60
2022/03/25 07:13:00;;;;;;;0.25;0.20;;;;;;;25.22;57.36;101762.44;5074568;28;20070;-60
2022/03/25 07:15:25;;;;;;;0.50;0.30;;;;;;;25.24;58.59;101756.75;5074278;28;20028;-60
2022/03/25 07:17:52;;;;;;;1.35;0.22;;;;;;;25.25;58.62;101758.44;5074897;28;20057;-60
2022/03/25 07:20:18;;;;;;;0.82;0.30;;;;;;;25.24;58.00;101757.59;5074294;28;20459;-60
2022/03/25 07:22:45;;;;;;;0.50;0.30;;;;;;;25.26;58.33;101760.16;5074425;28;20043;-60
2022/03/25 07:25:12;;;;;;;1.30;0.20;;;;;;;25.26;57.87;101755.50;5074306;28;20115;-60
2022/03/25 07:27:37;;;;;;;0.55;0.28;;;;;;;25.28;58.10;101750.63;5074209;28;20025;-60
2022/03/25 07:30:04;;;;;;;1.42;0.30;;;;;;;25.28;58.56;101747.88;5074161;28;20025;-60
2022/03/25 07:32:30;;;;;;;1.50;0.20;;;;;;;25.28;58.03;101742.38;5073776;28;20044;-60
2022/03/25 07:34:55;;;;;;;1.45;0.30;;;;;;;25.30;58.16;101734.78;5074146;28;20460;-61
2022/03/25 07:37:21;;;;;;;0.77;0.22;;;;;;;25.29;58.16;101740.47;5073813;28;20483;-61
2022/03/25 07:39:46;;;;;;;0.95;0.28;;;;;;;25.29;58.04;101726.72;5072697;28;20024;-60
2022/03/25 07:42:11;;;;;;;1.02;0.30;;;;;;;25.31;58.40;101727.38;5073862;28;20035;-60
2022/03/25 07:44:39;;;;;;;0.65;0.38;;;;;;;25.30;58.01;101728.41;5073783;28;20026;-60
2022/03/25 07:47:05;;;;;;;0.10;0.10;;;;;;;25.33;58.58;101725.28;5073948;28;20357;-60
2022/03/25 07:49:30;;;;;;;1.55;0.50;;;;;;;25.32;58.24;101732.69;5073664;28;20111;-62
2022/03/25 07:51:55;;;;;;;1.75;0.45;;;;;;;25.34;58.99;101726.97;5073922;28;20108;-61
2022/03/25 07:54:20;;;;;;;1.20;0.30;;;;;;;25.32;57.52;101729.94;5074176;28;20024;-61
2022/03/25 07:56:46;;;;;;;1.58;0.43;;;;;;;25.33;57.99;101728.88;5073860;28;20379;-60
2022/03/25 07:59:11;;;;;;;0.82;0.20;;;;;;;25.34;58.32;101724.22;5073292;28;20047;-61
2022/03/25 08:01:37;;;;;;;0.90;0.35;;;;;;;25.34;58.56;101725.06;5073454;28;20028;-60
2022/03/25 08:04:03;;;;;;;1.02;0.28;;;;;;;25.37;58.82;101724.69;5073957;28;20021;-61
2022/03/25 08:06:28;;;;;;;1.70;0.40;;;;;;;25.37;58.31;101723.84;5073406;28;20021;-61
2022/03/25 08:08:53;;;;;;;1.17;0.60;;;;;;;25.37;58.54;101719.19;5073326;28;20491;-61
2022/03/25 08:11:20;;;;;;;1.35;0.30;;;;;;;25.37;58.89;101729.34;5073282;28;20027;-62
2022/03/25 08:13:47;;;;;;;0.57;0.25;;;;;;;25.36;58.06;101728.50;5073818;28;20043;-61
2022/03/25 08:16:15;;;;;;;2.20;0.35;;;;;;;25.39;58.48;101722.59;5073063;28;20029;-60
2022/03/25 08:18:41;;;;;;;1.58;0.30;;;;;;;25.36;58.02;101717.50;5073235;28;20028;-60
2022/03/25 08:21:06;;;;;;;1.90;0.50;;;;;;;25.36;58.10;101720.25;5073349;28;20055;-60
2022/03/25 08:29:00;;;;;;;1.75;0.20;;;;;;;25.39;58.16;101711.59;5072800;28;20119;-60
2022/03/25 08:31:25;;;;;;;1.23;0.22;;;;;;;25.40;58.63;101707.78;5072704;28;20032;-60
2022/03/25 08:33:51;;;;;;;1.60;0.47;;;;;;;25.39;58.00;101716.25;5073152;28;20017;-60
2022/03/25 08:36:17;;;;;;;2.17;0.43;;;;;;;25.41;57.85;101703.97;5072783;28;20376;-60
2022/03/25 08:38:43;;;;;;;0.68;0.40;;;;;;;25.42;58.50;101711.19;5072910;28;20120;-60
2022/03/25 08:41:08;;;;;;;0.60;0.40;;;;;;;25.44;58.71;101703.59;5072891;28;20056;-60
2022/03/25 08:43:33;;;;;;;1.80;0.75;;;;;;;25.43;58.59;101704.63;5072791;28;20048;-60
2022/03/25 08:45:59;;;;;;;1.48;0.30;;;;;;;25.44;58.17;101692.56;5073215;28;20043;-60
2022/03/25 08:48:24;;;;;;;1.23;0.25;;;;;;;25.43;58.32;101696.38;5072882;28;20474;-60
2022/03/25 08:50:50;;;;;;;0.68;0.40;;;;;;;25.38;58.82;101693.38;5072860;28;20431;-60
2022/03/25 08:53:17;;;;;;;1.67;0.35;;;;;;;24.74;58.88;101696.03;5072579;28;20024;-60
2022/03/25 08:55:42;;;;;;;1.27;0.40;;;;;;;24.29;57.36;101708.13;5071405;28;20468;-60
2022/03/25 08:58:08;;;;;;;0.47;0.25;;;;;;;23.98;55.59;101697.28;5072662;28;20277;-60
2022/03/25 09:00:33;;;;;;;0.95;0.32;;;;;;;23.87;54.49;101697.78;5072214;28;20537;-60
2022/03/25 09:02:58;;;;;;;1.20;0.30;;;;;;;23.71;52.24;101693.31;5072669;28;20020;-60
2022/03/25 09:05:24;;;;;;;0.65;0.20;;;;;;;23.65;51.97;101689.38;5072422;28;20058;-60
2022/03/25 09:07:49;;;;;;;0.52;0.20;;;;;;;23.58;51.00;101688.44;5072652;28;20171;-60
2022/03/25 09:10:15;;;;;;;1.35;0.40;;;;;;;23.52;50.54;101672.69;5072423;28;20020;-60
2022/03/25 09:12:42;;;;;;;1.48;0.40;;;;;;;23.44;49.34;101686.47;5072465;28;20024;-60
2022/03/25 09:15:09;;;;;;;1.58;0.32;;;;;;;23.39;49.16;101683.44;5069466;28;20028;-60
2022/03/25 09:17:35;;;;;;;1.95;0.45;;;;;;;23.38;48.50;101688.06;5071763;28;20403;-60
2022/03/25 09:20:03;;;;;;;1.45;0.30;;;;;;;23.30;48.27;101695.50;5071253;28;20037;-60
2022/03/25 09:22:29;;;;;;;1.17;0.73;;;;;;;23.31;48.38;101680.75;5071401;28;20028;-59
2022/03/25 09:24:55;;;;;;;0.80;0.20;;;;;;;23.30;47.58;101679.88;5072218;28;20082;-59
2022/03/25 09:27:20;;;;;;;1.77;0.40;;;;;;;23.25;48.17;101676.00;5076818;28;20060;-60
2022/03/25 09:29:45;;;;;;;0.45;0.40;;;;;;;23.29;47.73;101666.38;5078734;28;20464;-60
2022/03/25 09:32:11;;;;;;;1.77;0.38;;;;;;;23.30;48.75;101673.56;5077161;28;20036;-60
2022/03/25 09:37:21;;;;;;;0.83;0.50;;;;;;;23.41;48.60;101678.63;5074779;28;20104;-62
2022/03/25 09:39:48;;;;;;;1.27;0.40;;;;;;;23.37;48.95;101682.78;5068268;28;20035;-61
2022/03/25 09:42:13;;;;;;;2.50;0.47;;;;;;;23.35;49.56;101671.13;5078250;28;20051;-61
2022/03/25 09:44:40;;;;;;;0.95;0.57;;;;;;;23.35;49.86;101676.63;5075245;28;20468;-62
2022/03/25 09:47:06;;;;;;;1.90;0.50;;;;;;;23.33;49.69;101674.03;5077221;28;20029;-62
2022/03/25 09:49:31;;;;;;;1.95;0.20;;;;;;;23.40;49.28;101668.69;5076497;28;20031;-62
2022/03/25 09:51:58;;;;;;;1.83;0.47;;;;;;;23.38;49.46;101666.13;5078416;28;20494;-62
2022/03/25 09:54:24;;;;;;;1.73;0.63;;;;;;;23.36;50.04;101661.88;5077435;28;20483;-62
2022/03/25 09:56:49;;;;;;;0.75;0.50;;;;;;;23.39;49.45;101650.50;5077821;28;20119;-62
2022/03/25 09:59:17;;;;;;;1.13;0.50;;;;;;;23.33;49.81;101651.22;5077766;28;20027;-61
2022/03/25 10:01:42;;;;;;;0.65;0.25;;;;;;;23.33;49.43;101648.47;5076213;28;20032;-61
2022/03/25 10:04:08;;;;;;;0.73;0.30;;;;;;;23.35;49.73;101643.69;5078526;28;20026;-61
2022/03/25 10:06:46;;;;;;;0.63;0.38;;;;;;;23.28;49.30;101639.97;5077378;28;20066;-61
2022/03/25 10:09:21;;;;;;;0.73;0.30;;;;;;;23.27;49.32;101639.13;5078587;28;20024;-62
2022/03/25 10:11:46;;;;;;;1.48;0.40;;;;;;;23.24;49.21;101631.25;5076442;28;20111;-63
2022/03/25 10:14:22;;;;;;;1.02;0.20;;;;;;;23.24;49.82;101627.66;5076090;28;20115;-63
2022/03/25 10:16:53;;;;;;;0.77;0.28;;;;;;;23.23;49.38;101620.47;5077679;28;20074;-63
2022/03/25 10:19:20;;;;;;;0.60;0.20;;;;;;;23.27;49.41;101619.06;5078232;28;20108;-64
2022/03/25 10:21:57;;;;;;;0.90;0.30;;;;;;;23.23;49.49;101612.25;5075615;28;20078;-64
2022/03/25 10:24:41;;;;;;;0.52;0.20;;;;;;;23.22;49.14;101605.06;5078164;28;20029;-62
2022/03/25 10:27:07;;;;;;;1.63;0.30;;;;;;;23.24;49.90;101600.22;5078467;28;20448;-64
2022/03/25 10:29:35;;;;;;;0.57;0.30;;;;;;;23.19;49.24;101597.19;5077888;28;20036;-64
2022/03/25 10:32:09;;;;;;;0.77;0.30;;;;;;;23.20;49.39;101597.00;5077111;28;20044;-63
2022/03/25 10:34:37;;;;;;;1.13;0.30;;;;;;;23.21;49.53;101589.63;5076905;28;20027;-64
2022/03/25 10:37:05;;;;;;;0.73;0.20;;;;;;;23.13;49.49;101590.53;5077513;28;20040;-64
2022/03/25 10:39:31;;;;;;;0.57;0.28;;;;;;;23.10;49.68;101591.78;5073952;28;20067;-62
2022/03/25 10:42:03;;;;;;;1.88;0.20;;;;;;;23.20;49.40;101590.69;5074004;28;20067;-63
2022/03/25 10:44:35;;;;;;;0.40;0.20;;;;;;;23.11;49.27;101582.50;5073677;28;20471;-64
2022/03/25 10:47:20;;;;;;;1.05;0.35;;;;;;;23.06;48.88;101579.47;5073942;28;20028;-63
2022/03/25 10:49:46;;;;;;;1.20;0.25;;;;;;;23.14;49.63;101574.94;5070227;28;20099;-65
2022/03/25 10:52:27;;;;;;;0.70;0.30;;;;;;;23.16;49.12;101567.38;5073698;28;20051;-63
2022/03/25 10:55:21;;;;;;;0.35;0.20;;;;;;;23.13;49.37;101562.25;5074059;28;20047;-62
2022/03/25 10:57:54;;;;;;;0.88;0.20;;;;;;;23.06;49.62;101565.75;5073489;28;20024;-64
2022/03/25 11:00:24;;;;;;;0.98;0.30;;;;;;;23.09;49.30;101570.88;5054545;28;20028;-65
2022/03/25 11:02:50;;;;;;;0.77;0.32;;;;;;;23.06;48.88;101568.50;5054795;28;20377;-64
2022/03/25 11:05:16;;;;;;;3.10;0.85;;;;;;;23.06;49.32;101571.25;5057477;28;20451;-62
2022/03/25 11:07:44;;;;;;;0.20;0.20;;;;;;;23.04;49.40;101559.63;5073263;28;20032;-61
2022/03/25 11:10:12;;;;;;;0.70;0.30;;;;;;;23.02;49.30;101563.59;5074444;28;20062;-61
2022/03/25 11:12:45;;;;;;;1.45;0.30;;;;;;;22.99;49.27;101553.81;5074538;28;20464;-61
2022/03/25 11:15:13;;;;;;;2.05;0.65;;;;;;;23.01;49.61;101554.50;5074458;28;20066;-61
2022/03/25 11:17:41;;;;;;;2.03;0.63;;;;;;;23.05;49.38;101555.84;5074448;28;20024;-61
2022/03/25 11:20:08;;;;;;;0.95;0.25;;;;;;;23.05;49.60;101550.34;5073418;28;20107;-61
2022/03/25 11:22:37;;;;;;;0.57;0.13;;;;;;;22.96;49.39;101535.00;5074901;28;20027;-62
2022/03/25 11:25:04;;;;;;;0.73;0.32;;;;;;;23.02;49.31;101545.25;5070854;28;20037;-62
2022/03/25 11:27:35;;;;;;;1.27;0.20;;;;;;;22.96;49.69;101535.00;5074176;28;20115;-62
2022/03/25 11:30:04;;;;;;;1.60;0.60;;;;;;;23.03;49.51;101541.47;5073922;28;20467;-62
2022/03/25 11:32:30;;;;;;;1.67;0.20;;;;;;;23.04;49.14;101526.72;5073939;28;20044;-62